createdAt,value
2017-01-18T00:01:04.373Z,0
2017-01-18T00:02:18.140Z,0
2017-01-18T00:03:31.559Z,0
2017-01-18T00:04:45.139Z,0
2017-01-18T00:05:58.918Z,0
2017-01-18T00:07:13.605Z,0
2017-01-18T00:08:27.164Z,0
2017-01-18T00:09:40.630Z,0
2017-01-18T00:10:54.221Z,0
2017-01-18T00:12:09.175Z,0
2017-01-18T00:13:23.551Z,0
2017-01-18T00:14:37.541Z,0
2017-01-18T00:15:51.857Z,0
2017-01-18T00:17:07.003Z,0
2017-01-18T00:18:21.454Z,0
2017-01-18T00:19:35.964Z,0
2017-01-18T00:20:49.566Z,0
2017-01-18T00:22:03.070Z,0
2017-01-18T00:23:18.813Z,0
2017-01-18T00:24:33.978Z,0
2017-01-18T00:25:48.130Z,0
2017-01-18T00:27:01.891Z,0
2017-01-18T00:28:16.387Z,0
2017-01-18T00:29:29.940Z,0
2017-01-18T00:30:43.903Z,0
2017-01-18T00:31:58.931Z,0
2017-01-18T00:33:12.500Z,0
2017-01-18T00:34:26.568Z,0
2017-01-18T00:35:40.476Z,0
2017-01-18T00:36:54.374Z,0
2017-01-18T00:38:08.947Z,0
2017-01-18T00:39:22.385Z,0
2017-01-18T00:40:36.018Z,0
2017-01-18T00:41:49.571Z,0
2017-01-18T00:43:04.581Z,0
2017-01-18T00:44:18.543Z,0
2017-01-18T00:45:31.966Z,0
2017-01-18T00:46:45.399Z,0
2017-01-18T00:47:58.863Z,0
2017-01-18T00:49:13.245Z,0
2017-01-18T00:50:26.682Z,0
2017-01-18T00:51:40.806Z,0
2017-01-18T00:52:54.208Z,0
2017-01-18T00:54:08.254Z,0
2017-01-18T00:55:22.200Z,0
2017-01-18T00:56:35.633Z,0
2017-01-18T00:57:49.047Z,0
2017-01-18T00:59:02.459Z,0
2017-01-18T01:00:15.941Z,0
2017-01-18T01:01:29.849Z,0
2017-01-18T01:02:43.327Z,0
2017-01-18T01:03:56.729Z,0
2017-01-18T01:05:10.235Z,0
2017-01-18T01:06:23.689Z,0
2017-01-18T01:07:37.471Z,0
2017-01-18T01:08:51.356Z,0
2017-01-18T01:10:07.697Z,0
2017-01-18T01:11:21.355Z,0
2017-01-18T01:12:34.791Z,0
2017-01-18T01:13:48.745Z,0
2017-01-18T01:15:02.447Z,0
2017-01-18T01:16:15.944Z,0
2017-01-18T01:17:30.121Z,0
2017-01-18T01:18:43.640Z,0
2017-01-18T01:19:57.470Z,0
2017-01-18T01:21:11.488Z,0
2017-01-18T01:22:25.116Z,0
2017-01-18T01:23:39.028Z,0
2017-01-18T01:24:52.464Z,0
2017-01-18T01:26:06.285Z,0
2017-01-18T01:27:20.156Z,0
2017-01-18T01:28:33.594Z,0
2017-01-18T01:29:47.129Z,0
2017-01-18T01:31:00.560Z,0
2017-01-18T01:32:14.306Z,0
2017-01-18T01:33:27.902Z,0
2017-01-18T01:34:43.131Z,0
2017-01-18T01:35:56.671Z,0
2017-01-18T01:37:11.922Z,0
2017-01-18T01:38:25.835Z,0
2017-01-18T01:39:41.457Z,0
2017-01-18T01:40:55.223Z,0
2017-01-18T01:42:08.724Z,0
2017-01-18T01:43:22.558Z,0
2017-01-18T01:44:36.699Z,0
2017-01-18T01:45:50.598Z,0
2017-01-18T01:47:05.089Z,0
2017-01-18T01:48:18.995Z,0
2017-01-18T01:49:32.457Z,0
2017-01-18T01:50:46.214Z,0
2017-01-18T01:51:59.788Z,0
2017-01-18T01:53:13.875Z,0
2017-01-18T01:54:27.314Z,0
2017-01-18T01:55:40.774Z,0
2017-01-18T01:56:54.574Z,0
2017-01-18T01:58:08.430Z,0
2017-01-18T01:59:21.894Z,0
2017-01-18T02:00:35.795Z,0
2017-01-18T02:01:49.628Z,0
2017-01-18T02:03:03.414Z,0
2017-01-18T02:04:16.934Z,0
2017-01-18T02:05:30.406Z,0
2017-01-18T02:06:43.828Z,0
2017-01-18T02:07:57.257Z,0
2017-01-18T02:09:11.147Z,0
2017-01-18T02:10:24.908Z,0
2017-01-18T02:11:38.748Z,0
2017-01-18T02:12:52.207Z,0
2017-01-18T02:14:21.703Z,0
2017-01-18T02:15:36.003Z,0
2017-01-18T02:16:49.465Z,0
2017-01-18T02:18:02.895Z,0
2017-01-18T02:19:17.224Z,0
2017-01-18T02:20:30.964Z,0
2017-01-18T02:21:44.396Z,0
2017-01-18T02:22:57.854Z,0
2017-01-18T02:24:11.379Z,0
2017-01-18T02:25:24.895Z,0
2017-01-18T02:26:39.340Z,0
2017-01-18T02:27:52.934Z,0
2017-01-18T02:29:06.424Z,0
2017-01-18T02:30:20.365Z,0
2017-01-18T02:31:34.764Z,0
2017-01-18T02:32:48.465Z,0
2017-01-18T02:34:02.338Z,0
2017-01-18T02:35:17.095Z,0
2017-01-18T02:36:30.958Z,0
2017-01-18T02:37:44.397Z,0
2017-01-18T02:38:58.167Z,0
2017-01-18T02:40:11.583Z,0
2017-01-18T02:41:26.270Z,0
2017-01-18T02:42:39.654Z,0
2017-01-18T02:43:53.085Z,0
2017-01-18T02:45:07.208Z,0
2017-01-18T02:46:21.995Z,0
2017-01-18T02:47:35.413Z,0
2017-01-18T02:48:48.855Z,0
2017-01-18T02:50:02.288Z,0
2017-01-18T02:51:16.098Z,0
2017-01-18T02:52:29.627Z,0
2017-01-18T02:53:43.034Z,0
2017-01-18T02:54:56.457Z,0
2017-01-18T02:56:12.029Z,0
2017-01-18T02:57:27.497Z,0
2017-01-18T02:58:41.317Z,0
2017-01-18T02:59:54.791Z,0
2017-01-18T03:01:08.256Z,0
2017-01-18T03:02:22.917Z,0
2017-01-18T03:03:36.821Z,0
2017-01-18T03:04:50.289Z,0
2017-01-18T03:06:06.206Z,0
2017-01-18T03:07:20.251Z,0
2017-01-18T03:08:37.552Z,0
2017-01-18T03:09:56.659Z,0
2017-01-18T03:11:12.729Z,0
2017-01-18T03:12:26.242Z,0
2017-01-18T03:13:39.691Z,0
2017-01-18T03:15:00.865Z,0
2017-01-18T03:16:22.858Z,0
2017-01-18T03:17:40.839Z,0
2017-01-18T03:18:56.504Z,0
2017-01-18T03:20:16.325Z,0
2017-01-18T03:21:31.594Z,0
2017-01-18T03:22:45.084Z,0
2017-01-18T03:23:58.557Z,0
2017-01-18T03:25:11.957Z,0
2017-01-18T03:27:23.378Z,0
2017-01-18T03:28:36.873Z,0
2017-01-18T03:29:50.279Z,0
2017-01-18T03:31:03.729Z,0
2017-01-18T03:32:17.164Z,0
2017-01-18T03:33:30.947Z,0
2017-01-18T03:34:44.398Z,0
2017-01-18T03:35:57.852Z,0
2017-01-18T03:37:11.576Z,0
2017-01-18T03:38:25.057Z,0
2017-01-18T03:39:38.820Z,0
2017-01-18T03:40:52.241Z,0
2017-01-18T03:42:05.640Z,0
2017-01-18T03:43:19.062Z,0
2017-01-18T03:44:32.625Z,0
2017-01-18T03:45:46.374Z,0
2017-01-18T03:46:59.826Z,0
2017-01-18T03:48:13.234Z,0
2017-01-18T03:49:26.728Z,0
2017-01-18T03:50:40.139Z,0
2017-01-18T03:51:53.807Z,0
2017-01-18T03:53:07.231Z,0
2017-01-18T03:54:20.740Z,0
2017-01-18T03:55:35.498Z,0
2017-01-18T03:56:49.336Z,0
2017-01-18T03:58:03.040Z,0
2017-01-18T03:59:16.454Z,0
2017-01-18T04:00:29.962Z,0
2017-01-18T04:01:43.367Z,0
2017-01-18T04:02:56.783Z,0
2017-01-18T04:04:10.505Z,0
2017-01-18T04:05:24.013Z,0
2017-01-18T04:06:38.297Z,0
2017-01-18T04:07:51.722Z,0
2017-01-18T04:09:05.154Z,0
2017-01-18T04:10:18.883Z,0
2017-01-18T04:11:32.342Z,0
2017-01-18T04:12:45.784Z,0
2017-01-18T04:14:01.631Z,0
2017-01-18T04:15:15.032Z,0
2017-01-18T04:16:29.238Z,0
2017-01-18T04:17:42.723Z,0
2017-01-18T04:18:56.149Z,0
2017-01-18T04:20:09.628Z,0
2017-01-18T04:21:23.204Z,0
2017-01-18T04:22:36.966Z,0
2017-01-18T04:23:50.395Z,0
2017-01-18T04:25:04.267Z,0
2017-01-18T04:26:17.719Z,0
2017-01-18T04:27:32.422Z,0
2017-01-18T04:28:46.125Z,0
2017-01-18T04:29:59.583Z,0
2017-01-18T04:31:13.034Z,0
2017-01-18T04:32:26.730Z,0
2017-01-18T04:33:40.253Z,0
2017-01-18T04:34:53.925Z,0
2017-01-18T04:36:07.371Z,0
2017-01-18T04:37:20.859Z,0
2017-01-18T04:38:34.346Z,0
2017-01-18T04:39:47.810Z,0
2017-01-18T04:41:01.528Z,0
2017-01-18T04:42:14.964Z,0
2017-01-18T04:43:28.525Z,0
2017-01-18T04:44:42.389Z,0
2017-01-18T04:45:55.818Z,0
2017-01-18T04:47:09.727Z,0
2017-01-18T04:48:23.227Z,0
2017-01-18T04:49:36.709Z,0
2017-01-18T04:50:50.255Z,0
2017-01-18T04:52:03.700Z,0
2017-01-18T04:53:17.697Z,0
2017-01-18T04:54:31.124Z,0
2017-01-18T04:55:44.543Z,0
2017-01-18T04:56:58.010Z,0
2017-01-18T04:58:11.486Z,0
2017-01-18T04:59:25.360Z,0
2017-01-18T05:00:38.849Z,0
2017-01-18T05:02:11.489Z,0
2017-01-18T05:03:25.041Z,0
2017-01-18T05:04:38.844Z,0
2017-01-18T05:05:52.689Z,0
2017-01-18T05:07:06.134Z,0
2017-01-18T05:08:19.628Z,0
2017-01-18T05:09:33.051Z,0
2017-01-18T05:10:47.162Z,0
2017-01-18T05:12:00.579Z,0
2017-01-18T05:13:14.047Z,0
2017-01-18T05:14:27.523Z,0
2017-01-18T05:15:41.003Z,0
2017-01-18T05:16:54.787Z,0
2017-01-18T05:18:08.250Z,0
2017-01-18T05:19:21.715Z,0
2017-01-18T05:20:36.060Z,0
2017-01-18T05:21:49.501Z,0
2017-01-18T05:23:03.764Z,0
2017-01-18T05:24:18.956Z,0
2017-01-18T05:25:32.916Z,0
2017-01-18T05:26:46.827Z,0
2017-01-18T05:28:00.324Z,0
2017-01-18T05:29:14.139Z,0
2017-01-18T05:30:29.927Z,0
2017-01-18T05:31:43.529Z,0
2017-01-18T05:32:57.003Z,0
2017-01-18T05:34:11.099Z,0
2017-01-18T05:35:24.994Z,0
2017-01-18T05:36:39.146Z,0
2017-01-18T05:37:52.634Z,0
2017-01-18T05:39:06.096Z,0
2017-01-18T05:40:19.630Z,0
2017-01-18T05:41:33.828Z,0
2017-01-18T05:42:48.149Z,0
2017-01-18T05:44:02.076Z,0
2017-01-18T05:45:15.648Z,0
2017-01-18T05:46:29.127Z,0
2017-01-18T05:47:43.314Z,0
2017-01-18T05:48:56.865Z,0
2017-01-18T05:50:10.385Z,0
2017-01-18T05:51:24.374Z,0
2017-01-18T05:52:38.249Z,0
2017-01-18T05:53:52.033Z,0
2017-01-18T05:55:05.537Z,0
2017-01-18T05:56:19.145Z,0
2017-01-18T05:57:34.308Z,0
2017-01-18T05:58:47.765Z,0
2017-01-18T06:00:01.530Z,0
2017-01-18T06:01:14.995Z,0
2017-01-18T06:02:28.528Z,0
2017-01-18T06:03:41.973Z,0
2017-01-18T06:04:55.410Z,0
2017-01-18T06:06:09.204Z,0
2017-01-18T06:07:23.687Z,0
2017-01-18T06:08:37.175Z,0
2017-01-18T06:09:51.074Z,0
2017-01-18T06:11:04.488Z,0
2017-01-18T06:12:18.238Z,0
2017-01-18T06:13:32.251Z,0
2017-01-18T06:14:45.711Z,0
2017-01-18T06:15:59.240Z,0
2017-01-18T06:17:12.672Z,0
2017-01-18T06:18:27.309Z,0
2017-01-18T06:19:40.826Z,0
2017-01-18T06:20:54.403Z,0
2017-01-18T06:22:07.968Z,0
2017-01-18T06:23:21.639Z,0
2017-01-18T06:24:35.372Z,0
2017-01-18T06:25:48.815Z,0
2017-01-18T06:27:02.231Z,0
2017-01-18T06:28:15.940Z,0
2017-01-18T06:29:29.939Z,0
2017-01-18T06:30:43.740Z,0
2017-01-18T06:31:57.357Z,0
2017-01-18T06:33:10.832Z,0
2017-01-18T06:34:25.862Z,0
2017-01-18T06:35:39.850Z,0
2017-01-18T06:36:53.627Z,0
2017-01-18T06:38:07.112Z,0
2017-01-18T06:39:20.660Z,0
2017-01-18T06:40:34.093Z,0
2017-01-18T06:41:47.643Z,0
2017-01-18T06:43:01.438Z,0
2017-01-18T06:44:14.971Z,4
2017-01-18T06:45:28.552Z,0
2017-01-18T06:46:44.223Z,0
2017-01-18T06:47:58.110Z,4
2017-01-18T06:49:12.266Z,0
2017-01-18T06:51:33.322Z,4
2017-01-18T06:52:46.822Z,8
2017-01-18T06:54:00.476Z,4
2017-01-18T06:55:14.397Z,8
2017-01-18T06:56:27.899Z,12
2017-01-18T06:57:41.367Z,12
2017-01-18T06:58:54.825Z,12
2017-01-18T07:00:08.422Z,16
2017-01-18T07:01:22.381Z,20
2017-01-18T07:02:35.953Z,20
2017-01-18T07:03:49.814Z,24
2017-01-18T07:05:03.218Z,24
2017-01-18T07:06:17.945Z,28
2017-01-18T07:07:31.702Z,32
2017-01-18T07:08:45.158Z,40
2017-01-18T07:09:58.611Z,48
2017-01-18T07:11:12.197Z,56
2017-01-18T07:12:25.712Z,60
2017-01-18T07:13:39.820Z,68
2017-01-18T07:14:53.669Z,72
2017-01-18T07:16:07.316Z,84
2017-01-18T07:17:20.752Z,92
2017-01-18T07:18:34.175Z,96
2017-01-18T07:19:47.882Z,108
2017-01-18T07:21:01.291Z,116
2017-01-18T07:22:14.974Z,128
2017-01-18T07:23:28.458Z,140
2017-01-18T07:24:41.875Z,152
2017-01-18T07:25:55.570Z,168
2017-01-18T07:27:09.168Z,180
2017-01-18T07:28:23.408Z,204
2017-01-18T07:29:36.903Z,216
2017-01-18T07:30:50.340Z,224
2017-01-18T07:32:04.154Z,248
2017-01-18T07:33:17.590Z,268
2017-01-18T07:34:31.034Z,280
2017-01-18T07:35:44.912Z,292
2017-01-18T07:36:58.339Z,296
2017-01-18T07:38:13.337Z,324
2017-01-18T07:39:26.767Z,344
2017-01-18T07:40:40.197Z,348
2017-01-18T07:41:53.642Z,368
2017-01-18T07:43:07.995Z,412
2017-01-18T07:44:21.755Z,420
2017-01-18T07:45:35.205Z,476
2017-01-18T07:46:48.693Z,460
2017-01-18T07:48:04.287Z,480
2017-01-18T07:49:17.823Z,532
2017-01-18T07:50:31.546Z,568
2017-01-18T07:51:44.989Z,624
2017-01-18T07:52:58.499Z,608
2017-01-18T07:54:12.148Z,628
2017-01-18T07:55:25.651Z,660
2017-01-18T07:56:39.362Z,676
2017-01-18T07:57:53.227Z,676
2017-01-18T07:59:06.753Z,684
2017-01-18T08:00:20.244Z,700
2017-01-18T08:01:33.786Z,716
2017-01-18T08:02:47.525Z,732
2017-01-18T08:04:03.278Z,748
2017-01-18T08:05:16.753Z,764
2017-01-18T08:06:30.182Z,776
2017-01-18T08:07:44.061Z,784
2017-01-18T08:08:57.942Z,800
2017-01-18T08:10:11.428Z,804
2017-01-18T08:11:24.850Z,816
2017-01-18T08:12:38.484Z,832
2017-01-18T08:13:51.944Z,856
2017-01-18T08:15:05.764Z,884
2017-01-18T08:16:19.243Z,896
2017-01-18T08:17:32.669Z,912
2017-01-18T08:18:46.141Z,928
2017-01-18T08:19:59.735Z,936
2017-01-18T08:21:13.541Z,956
2017-01-18T08:22:27.157Z,992
2017-01-18T08:23:40.728Z,1000
2017-01-18T08:24:54.321Z,1008
2017-01-18T08:26:07.804Z,1012
2017-01-18T08:27:21.527Z,1028
2017-01-18T08:28:35.411Z,1044
2017-01-18T08:29:48.831Z,1064
2017-01-18T08:31:02.767Z,1084
2017-01-18T08:32:16.193Z,1084
2017-01-18T08:33:29.947Z,1120
2017-01-18T08:34:43.466Z,1140
2017-01-18T08:35:57.429Z,1144
2017-01-18T08:37:11.320Z,1176
2017-01-18T08:38:24.841Z,1184
2017-01-18T08:39:38.849Z,1208
2017-01-18T08:40:52.305Z,1220
2017-01-18T08:42:05.852Z,1232
2017-01-18T08:43:19.296Z,1244
2017-01-18T08:44:32.712Z,1252
2017-01-18T08:45:46.456Z,1260
2017-01-18T08:47:00.012Z,1280
2017-01-18T08:48:13.489Z,1288
2017-01-18T08:49:26.949Z,1304
2017-01-18T08:50:40.418Z,1308
2017-01-18T08:51:54.251Z,1316
2017-01-18T08:53:14.259Z,1328
2017-01-18T08:54:29.505Z,1344
2017-01-18T08:55:43.341Z,1356
2017-01-18T08:56:57.513Z,1364
2017-01-18T08:58:12.405Z,1372
2017-01-18T08:59:25.858Z,1380
2017-01-18T09:00:39.759Z,1388
2017-01-18T09:02:12.902Z,1408
2017-01-18T09:03:27.458Z,1412
2017-01-18T09:04:41.033Z,1424
2017-01-18T09:05:54.512Z,1436
2017-01-18T09:07:08.029Z,1448
2017-01-18T09:08:21.553Z,1452
2017-01-18T09:09:35.356Z,1460
2017-01-18T09:10:48.828Z,1460
2017-01-18T09:12:02.273Z,1472
2017-01-18T09:13:15.747Z,1480
2017-01-18T09:14:29.221Z,1492
2017-01-18T09:15:43.403Z,1500
2017-01-18T09:16:56.977Z,1504
2017-01-18T09:18:10.528Z,1508
2017-01-18T09:19:24.817Z,1520
2017-01-18T09:20:40.426Z,1524
2017-01-18T09:21:54.168Z,1532
2017-01-18T09:23:07.659Z,1544
2017-01-18T09:24:21.141Z,1552
2017-01-18T09:25:34.571Z,1552
2017-01-18T09:26:48.461Z,1560
2017-01-18T09:28:02.609Z,1568
2017-01-18T09:29:16.148Z,1580
2017-01-18T09:30:29.695Z,1596
2017-01-18T09:31:43.124Z,1604
2017-01-18T09:32:56.521Z,1600
2017-01-18T09:34:10.374Z,1604
2017-01-18T09:35:23.809Z,1608
2017-01-18T09:36:37.250Z,1608
2017-01-18T09:37:50.675Z,1620
2017-01-18T09:39:04.070Z,1624
2017-01-18T09:40:17.874Z,1624
2017-01-18T09:41:31.330Z,1628
2017-01-18T09:42:45.004Z,1632
2017-01-18T09:43:58.812Z,1640
2017-01-18T09:45:12.338Z,1636
2017-01-18T09:46:26.101Z,1644
2017-01-18T09:47:39.510Z,1652
2017-01-18T09:48:52.956Z,1652
2017-01-18T09:50:06.523Z,1656
2017-01-18T09:51:19.941Z,1664
2017-01-18T09:52:33.651Z,1672
2017-01-18T09:53:47.083Z,1676
2017-01-18T09:55:00.525Z,1672
2017-01-18T09:56:14.100Z,1676
2017-01-18T09:57:27.554Z,1688
2017-01-18T09:58:41.344Z,1680
2017-01-18T09:59:55.236Z,1692
2017-01-18T10:01:08.820Z,1700
2017-01-18T10:02:22.293Z,1692
2017-01-18T10:03:36.329Z,1688
2017-01-18T10:04:50.063Z,1692
2017-01-18T10:06:03.622Z,1692
2017-01-18T10:07:17.151Z,1700
2017-01-18T10:08:30.709Z,1700
2017-01-18T10:09:44.593Z,1696
2017-01-18T10:10:58.355Z,1696
2017-01-18T10:12:11.946Z,1704
2017-01-18T10:13:25.902Z,1704
2017-01-18T10:14:39.416Z,1700
2017-01-18T10:15:52.895Z,1704
2017-01-18T10:17:07.929Z,1708
2017-01-18T10:18:21.329Z,1712
2017-01-18T10:19:34.773Z,1712
2017-01-18T10:20:48.199Z,1720
2017-01-18T10:22:01.905Z,1720
2017-01-18T10:23:15.629Z,1720
2017-01-18T10:24:29.068Z,1728
2017-01-18T10:25:42.525Z,1736
2017-01-18T10:26:55.930Z,1736
2017-01-18T10:28:09.434Z,1728
2017-01-18T10:29:23.254Z,1720
2017-01-18T10:30:36.690Z,1728
2017-01-18T10:31:50.101Z,1732
2017-01-18T10:33:03.644Z,1736
2017-01-18T10:34:17.081Z,1740
2017-01-18T10:35:30.836Z,1740
2017-01-18T10:36:46.512Z,1740
2017-01-18T10:38:00.884Z,1744
2017-01-18T10:39:14.316Z,1736
2017-01-18T10:40:27.763Z,1732
2017-01-18T10:41:41.493Z,1744
2017-01-18T10:42:54.965Z,1740
2017-01-18T10:44:08.405Z,1732
2017-01-18T10:45:21.838Z,1728
2017-01-18T10:46:35.304Z,1720
2017-01-18T10:47:49.014Z,1720
2017-01-18T10:49:02.618Z,1720
2017-01-18T10:50:16.069Z,1720
2017-01-18T10:51:55.619Z,1728
2017-01-18T10:53:09.415Z,1728
2017-01-18T10:54:22.968Z,1732
2017-01-18T10:55:36.450Z,1732
2017-01-18T10:56:49.915Z,1732
2017-01-18T10:58:03.812Z,1748
2017-01-18T10:59:17.663Z,1748
2017-01-18T11:00:31.082Z,1748
2017-01-18T11:01:44.562Z,1748
2017-01-18T11:02:57.991Z,1760
2017-01-18T11:04:11.415Z,1772
2017-01-18T11:05:25.250Z,1772
2017-01-18T11:06:39.098Z,1764
2017-01-18T11:07:52.581Z,1748
2017-01-18T11:09:06.074Z,1744
2017-01-18T11:10:20.104Z,1744
2017-01-18T11:11:34.001Z,1752
2017-01-18T11:12:47.475Z,1760
2017-01-18T11:14:01.345Z,1772
2017-01-18T11:15:15.368Z,1752
2017-01-18T11:16:28.971Z,1736
2017-01-18T11:17:43.131Z,1728
2017-01-18T11:18:56.678Z,1732
2017-01-18T11:20:10.154Z,1736
2017-01-18T11:21:24.990Z,1740
2017-01-18T11:22:38.493Z,1740
2017-01-18T11:23:52.270Z,1744
2017-01-18T11:25:05.936Z,1760
2017-01-18T11:26:19.523Z,1772
2017-01-18T11:27:33.019Z,1772
2017-01-18T11:28:46.479Z,1768
2017-01-18T11:30:00.247Z,1752
2017-01-18T11:31:13.842Z,1724
2017-01-18T11:32:27.746Z,1700
2017-01-18T11:33:41.652Z,1700
2017-01-18T11:34:55.152Z,1700
2017-01-18T11:36:08.990Z,1696
2017-01-18T11:37:23.822Z,1688
2017-01-18T11:38:37.278Z,1704
2017-01-18T11:39:51.181Z,1708
2017-01-18T11:41:04.633Z,1704
2017-01-18T11:42:19.652Z,1696
2017-01-18T11:44:43.852Z,1704
2017-01-18T11:45:57.306Z,1708
2017-01-18T11:47:11.263Z,1708
2017-01-18T11:48:24.997Z,1716
2017-01-18T11:49:38.918Z,1716
2017-01-18T11:50:52.355Z,1696
2017-01-18T11:52:06.201Z,1700
2017-01-18T11:53:19.798Z,1700
2017-01-18T11:54:36.153Z,1700
2017-01-18T11:55:50.021Z,1700
2017-01-18T11:57:03.500Z,1708
2017-01-18T11:58:17.102Z,1704
2017-01-18T11:59:30.530Z,1696
2017-01-18T12:00:44.258Z,1692
2017-01-18T12:01:57.703Z,1700
2017-01-18T12:03:12.473Z,1708
2017-01-18T12:04:26.031Z,1696
2017-01-18T12:06:31.133Z,1672
2017-01-18T12:07:45.285Z,1676
2017-01-18T12:09:00.549Z,1676
2017-01-18T12:10:14.041Z,1676
2017-01-18T12:11:27.539Z,1672
2017-01-18T12:12:41.289Z,1672
2017-01-18T12:14:41.672Z,1624
2017-01-18T12:15:55.149Z,1680
2017-01-18T12:17:09.004Z,1680
2017-01-18T12:18:24.188Z,1676
2017-01-18T12:19:37.767Z,1672
2017-01-18T12:20:51.245Z,1676
2017-01-18T12:22:04.691Z,1672
2017-01-18T12:23:18.172Z,1668
2017-01-18T12:24:31.898Z,1664
2017-01-18T12:25:45.925Z,1660
2017-01-18T12:26:59.352Z,1660
2017-01-18T12:28:23.146Z,1656
2017-01-18T12:29:36.662Z,1652
2017-01-18T12:30:50.521Z,1648
2017-01-18T12:32:04.041Z,1652
2017-01-18T12:33:17.486Z,1652
2017-01-18T12:34:30.975Z,1652
2017-01-18T12:35:44.609Z,1648
2017-01-18T12:36:58.333Z,1648
2017-01-18T12:38:11.795Z,1648
2017-01-18T12:39:25.273Z,1648
2017-01-18T12:40:39.128Z,1644
2017-01-18T12:41:53.880Z,1616
2017-01-18T12:43:07.404Z,1632
2017-01-18T12:44:20.853Z,1652
2017-01-18T12:45:34.323Z,1652
2017-01-18T12:46:47.984Z,1652
2017-01-18T12:48:01.409Z,1648
2017-01-18T12:49:15.168Z,1648
2017-01-18T12:50:28.678Z,1652
2017-01-18T12:51:42.287Z,1652
2017-01-18T12:52:55.743Z,1656
2017-01-18T12:54:09.744Z,1656
2017-01-18T12:55:23.509Z,1648
2017-01-18T12:56:36.989Z,1608
2017-01-18T12:57:50.512Z,1664
2017-01-18T12:59:03.990Z,1664
2017-01-18T13:00:17.451Z,1664
2017-01-18T13:01:31.172Z,1664
2017-01-18T13:02:44.706Z,1664
2017-01-18T13:03:58.221Z,1668
2017-01-18T13:05:11.712Z,1672
2017-01-18T13:06:25.207Z,1664
2017-01-18T13:07:39.074Z,1664
2017-01-18T13:08:52.542Z,1664
2017-01-18T13:10:06.008Z,1664
2017-01-18T13:11:19.472Z,1664
2017-01-18T13:12:35.095Z,1660
2017-01-18T13:13:49.492Z,1660
2017-01-18T13:15:03.016Z,1656
2017-01-18T13:16:16.490Z,1652
2017-01-18T13:17:30.021Z,1652
2017-01-18T13:18:43.596Z,1652
2017-01-18T13:19:57.369Z,1652
2017-01-18T13:21:10.834Z,1644
2017-01-18T13:22:24.281Z,1644
2017-01-18T13:23:37.855Z,1640
2017-01-18T13:24:51.314Z,1640
2017-01-18T13:26:05.060Z,1636
2017-01-18T13:27:18.593Z,1636
2017-01-18T13:28:32.073Z,1632
2017-01-18T13:29:45.736Z,1632
2017-01-18T13:30:59.648Z,1632
2017-01-18T13:32:13.281Z,1624
2017-01-18T13:33:27.138Z,1620
2017-01-18T13:34:42.229Z,1620
2017-01-18T13:35:55.725Z,1620
2017-01-18T13:37:09.195Z,1616
2017-01-18T13:38:23.029Z,1616
2017-01-18T13:39:36.614Z,1616
2017-01-18T13:40:50.100Z,1612
2017-01-18T13:42:03.542Z,1608
2017-01-18T13:43:16.987Z,1608
2017-01-18T13:44:30.856Z,1604
2017-01-18T13:45:45.653Z,1596
2017-01-18T13:46:59.143Z,1588
2017-01-18T13:48:12.590Z,1580
2017-01-18T13:49:26.098Z,1580
2017-01-18T13:50:39.938Z,1576
2017-01-18T13:51:53.421Z,1564
2017-01-18T13:53:07.347Z,1564
2017-01-18T13:54:20.845Z,1560
2017-01-18T13:55:34.386Z,1552
2017-01-18T13:56:48.119Z,1548
2017-01-18T13:58:02.023Z,1540
2017-01-18T13:59:15.413Z,1536
2017-01-18T14:00:28.848Z,1528
2017-01-18T14:01:42.327Z,1524
2017-01-18T14:02:56.265Z,1520
2017-01-18T14:04:09.712Z,1512
2017-01-18T14:05:23.568Z,1508
2017-01-18T14:06:37.146Z,1500
2017-01-18T14:07:50.599Z,1492
2017-01-18T14:09:04.319Z,1484
2017-01-18T14:10:17.766Z,1476
2017-01-18T14:11:42.395Z,1468
2017-01-18T14:12:55.907Z,1460
2017-01-18T14:14:09.416Z,1456
2017-01-18T14:15:23.382Z,1448
2017-01-18T14:16:36.827Z,1440
2017-01-18T14:17:50.298Z,1432
2017-01-18T14:19:03.713Z,1416
2017-01-18T14:20:17.161Z,1404
2017-01-18T14:21:30.919Z,1388
2017-01-18T14:22:44.438Z,1380
2017-01-18T14:23:58.034Z,1372
2017-01-18T14:25:11.488Z,1364
2017-01-18T14:26:25.371Z,1352
2017-01-18T14:27:39.164Z,1344
2017-01-18T14:28:54.839Z,1340
2017-01-18T14:30:08.299Z,1324
2017-01-18T14:31:21.766Z,1312
2017-01-18T14:32:35.253Z,1304
2017-01-18T14:33:49.097Z,1292
2017-01-18T14:35:02.568Z,1284
2017-01-18T14:36:16.497Z,1268
2017-01-18T14:37:30.377Z,1256
2017-01-18T14:38:44.316Z,1244
2017-01-18T14:39:58.076Z,1232
2017-01-18T14:41:11.540Z,1216
2017-01-18T14:42:25.184Z,1200
2017-01-18T14:43:39.083Z,1188
2017-01-18T14:44:54.174Z,1176
2017-01-18T14:46:07.906Z,1160
2017-01-18T14:47:21.841Z,1148
2017-01-18T14:48:35.275Z,1132
2017-01-18T14:49:50.022Z,1112
2017-01-18T14:51:03.502Z,1100
2017-01-18T14:52:16.944Z,1084
2017-01-18T14:53:30.373Z,1068
2017-01-18T14:54:45.193Z,1060
2017-01-18T14:55:58.690Z,1044
2017-01-18T14:57:12.195Z,1028
2017-01-18T14:58:26.064Z,1016
2017-01-18T14:59:39.953Z,1000
2017-01-18T15:00:53.897Z,984
2017-01-18T15:02:07.402Z,968
2017-01-18T15:03:20.818Z,956
2017-01-18T15:04:34.566Z,940
2017-01-18T15:05:48.065Z,924
2017-01-18T15:07:01.532Z,912
2017-01-18T15:08:15.018Z,892
2017-01-18T15:09:28.856Z,872
2017-01-18T15:10:43.953Z,856
2017-01-18T15:11:57.398Z,840
2017-01-18T15:13:10.845Z,820
2017-01-18T15:14:24.461Z,804
2017-01-18T15:15:38.069Z,784
2017-01-18T15:16:53.499Z,764
2017-01-18T15:18:06.990Z,744
2017-01-18T15:19:20.453Z,724
2017-01-18T15:20:33.933Z,704
2017-01-18T15:21:49.046Z,684
2017-01-18T15:23:02.928Z,660
2017-01-18T15:24:16.398Z,644
2017-01-18T15:25:29.819Z,620
2017-01-18T15:26:44.549Z,600
2017-01-18T15:27:58.035Z,576
2017-01-18T15:29:11.760Z,556
2017-01-18T15:30:25.236Z,532
2017-01-18T15:31:38.727Z,512
2017-01-18T15:32:52.271Z,488
2017-01-18T15:34:06.415Z,468
2017-01-18T15:35:20.206Z,448
2017-01-18T15:36:34.844Z,424
2017-01-18T15:37:49.428Z,404
2017-01-18T15:39:02.846Z,380
2017-01-18T15:40:16.614Z,360
2017-01-18T15:41:30.507Z,336
2017-01-18T15:42:45.619Z,316
2017-01-18T15:43:59.383Z,296
2017-01-18T15:45:15.945Z,276
2017-01-18T15:46:29.510Z,256
2017-01-18T15:47:44.354Z,236
2017-01-18T15:48:57.814Z,220
2017-01-18T15:50:11.436Z,200
2017-01-18T15:51:25.306Z,184
2017-01-18T15:52:38.745Z,168
2017-01-18T15:53:54.944Z,152
2017-01-18T15:55:08.449Z,136
2017-01-18T15:56:21.929Z,120
2017-01-18T15:57:35.404Z,108
2017-01-18T15:58:49.177Z,100
2017-01-18T16:00:03.806Z,84
2017-01-18T16:01:17.226Z,76
2017-01-18T16:02:30.679Z,68
2017-01-18T16:03:44.192Z,60
2017-01-18T16:04:57.701Z,52
2017-01-18T16:06:11.408Z,44
2017-01-18T16:07:27.022Z,36
2017-01-18T16:08:40.986Z,32
2017-01-18T16:09:54.547Z,28
2017-01-18T16:11:08.444Z,20
2017-01-18T16:12:23.499Z,16
2017-01-18T16:13:37.167Z,12
2017-01-18T16:14:51.743Z,12
2017-01-18T16:16:05.262Z,8
2017-01-18T16:17:18.884Z,8
2017-01-18T16:18:32.675Z,8
2017-01-18T16:19:47.401Z,8
2017-01-18T16:21:01.081Z,4
2017-01-18T16:22:14.617Z,4
2017-01-18T16:23:28.193Z,4
2017-01-18T16:24:42.584Z,0
2017-01-18T16:25:56.070Z,0
2017-01-18T16:27:10.884Z,4
2017-01-18T16:28:24.348Z,0
2017-01-18T16:29:37.847Z,0
2017-01-18T16:30:52.101Z,0
2017-01-18T16:32:05.644Z,0
2017-01-18T16:33:19.179Z,0
2017-01-18T16:34:32.623Z,0
2017-01-18T16:35:47.357Z,0
2017-01-18T16:37:01.492Z,0
2017-01-18T16:38:14.981Z,0
2017-01-18T16:39:28.527Z,0
2017-01-18T16:40:42.192Z,0
2017-01-18T16:41:55.922Z,0
2017-01-18T16:43:09.657Z,0
2017-01-18T16:44:24.307Z,0
2017-01-18T16:45:39.365Z,0
2017-01-18T16:46:54.083Z,0
2017-01-18T16:48:07.566Z,0
2017-01-18T16:49:21.300Z,0
2017-01-18T16:50:35.666Z,0
2017-01-18T16:51:49.646Z,0
2017-01-18T16:53:03.420Z,0
2017-01-18T16:54:16.890Z,0
2017-01-18T16:55:30.628Z,0
2017-01-18T16:56:44.223Z,0
2017-01-18T16:57:58.956Z,0
2017-01-18T16:59:12.422Z,0
2017-01-18T17:00:25.892Z,0
2017-01-18T17:01:42.320Z,0
2017-01-18T17:02:55.816Z,0
2017-01-18T17:04:09.383Z,0
2017-01-18T17:05:22.821Z,0
2017-01-18T17:06:36.259Z,0
2017-01-18T17:07:50.058Z,0
2017-01-18T17:09:03.529Z,0
2017-01-18T17:10:17.177Z,0
2017-01-18T17:11:30.768Z,0
2017-01-18T17:12:44.419Z,0
2017-01-18T17:13:58.614Z,0
2017-01-18T17:15:12.521Z,0
2017-01-18T17:16:25.992Z,0
2017-01-18T17:17:39.454Z,0
2017-01-18T17:18:53.084Z,0
2017-01-18T17:20:06.843Z,0
2017-01-18T17:21:20.714Z,0
2017-01-18T17:22:34.190Z,0
2017-01-18T17:23:47.715Z,0
2017-01-18T17:25:01.192Z,0